createdAt,value
2018-07-07T00:00:19.050Z,19.40
2018-07-07T00:02:47.203Z,19.40
2018-07-07T00:05:15.321Z,19.40
2018-07-07T00:07:43.453Z,19.40
2018-07-07T00:10:12.456Z,19.30
2018-07-07T00:12:41.254Z,19.30
2018-07-07T00:15:12.692Z,19.20
2018-07-07T00:17:41.560Z,19.10
2018-07-07T00:20:09.673Z,19.10
2018-07-07T00:30:05.336Z,19.10
2018-07-07T00:32:33.458Z,19.10
2018-07-07T00:35:01.593Z,19.00
2018-07-07T00:39:57.602Z,18.90
2018-07-07T00:42:25.722Z,18.90
2018-07-07T00:44:53.843Z,18.80
2018-07-07T00:47:21.970Z,18.80
2018-07-07T00:49:50.111Z,18.80
2018-07-07T00:52:18.239Z,18.70
2018-07-07T00:54:46.371Z,18.70
2018-07-07T00:57:14.491Z,18.60
2018-07-07T00:59:42.629Z,18.70
2018-07-07T01:02:16.003Z,18.70
2018-07-07T01:07:12.066Z,18.60
2018-07-07T01:09:40.219Z,18.60
2018-07-07T01:14:36.253Z,18.50
2018-07-07T01:22:00.246Z,18.60
2018-07-07T01:24:28.392Z,18.60
2018-07-07T01:26:56.531Z,18.60
2018-07-07T01:29:24.661Z,18.60
2018-07-07T01:31:52.802Z,18.60
2018-07-07T01:34:20.972Z,18.60
2018-07-07T01:36:49.102Z,18.50
2018-07-07T01:41:45.135Z,18.40
2018-07-07T01:44:13.291Z,18.40
2018-07-07T01:46:41.411Z,18.40
2018-07-07T01:49:09.549Z,18.40
2018-07-07T01:51:37.662Z,18.40
2018-07-07T01:54:05.832Z,18.30
2018-07-07T01:56:34.061Z,18.30
2018-07-07T01:59:02.186Z,18.20
2018-07-07T02:01:30.314Z,18.20
2018-07-07T02:03:58.438Z,18.20
2018-07-07T02:06:26.560Z,18.10
2018-07-07T02:08:54.685Z,18.10
2018-07-07T02:11:22.798Z,18.10
2018-07-07T02:13:50.918Z,18.10
2018-07-07T02:16:19.040Z,18.10
2018-07-07T02:18:47.229Z,18.00
2018-07-07T02:21:15.307Z,17.90
2018-07-07T02:26:11.386Z,18.00
2018-07-07T02:28:39.494Z,17.90
2018-07-07T02:31:07.645Z,17.90
2018-07-07T02:33:35.821Z,18.00
2018-07-07T02:36:03.934Z,17.90
2018-07-07T02:40:59.968Z,18.00
2018-07-07T02:43:28.092Z,17.90
2018-07-07T02:45:56.248Z,17.90
2018-07-07T02:48:24.471Z,17.90
2018-07-07T02:50:52.602Z,17.90
2018-07-07T02:53:20.734Z,18.00
2018-07-07T02:55:48.879Z,17.90
2018-07-07T02:58:16.999Z,17.90
2018-07-07T03:03:13.096Z,17.90
2018-07-07T03:05:41.279Z,17.90
2018-07-07T03:08:09.405Z,17.80
2018-07-07T03:10:37.558Z,17.80
2018-07-07T03:15:33.646Z,17.80
2018-07-07T03:18:01.774Z,17.70
2018-07-07T03:22:57.795Z,17.70
2018-07-07T03:27:53.880Z,17.70
2018-07-07T03:30:22.012Z,17.70
2018-07-07T03:35:18.051Z,17.70
2018-07-07T03:40:14.135Z,17.60
2018-07-07T03:42:42.246Z,17.60
2018-07-07T03:45:10.489Z,17.60
2018-07-07T03:47:38.588Z,17.60
2018-07-07T03:50:06.722Z,17.60
2018-07-07T03:52:34.850Z,17.50
2018-07-07T03:55:02.987Z,17.50
2018-07-07T03:57:31.119Z,17.50
2018-07-07T04:02:27.126Z,17.50
2018-07-07T04:04:55.263Z,17.60
2018-07-07T04:07:23.386Z,17.60
2018-07-07T04:12:19.434Z,17.60
2018-07-07T04:19:43.487Z,17.60
2018-07-07T04:22:11.591Z,17.60
2018-07-07T04:24:39.739Z,17.60
2018-07-07T04:27:07.867Z,17.60
2018-07-07T04:32:03.960Z,17.60
2018-07-07T04:34:32.078Z,17.60
2018-07-07T04:39:28.128Z,17.50
2018-07-07T04:41:56.266Z,17.60
2018-07-07T04:44:24.382Z,17.50
2018-07-07T04:46:52.524Z,17.50
2018-07-07T04:49:20.654Z,17.60
2018-07-07T04:51:48.790Z,17.60
2018-07-07T04:54:16.910Z,17.70
2018-07-07T04:56:45.036Z,17.70
2018-07-07T04:59:13.138Z,17.80
2018-07-07T05:01:41.271Z,17.80
2018-07-07T05:06:37.294Z,18.00
2018-07-07T05:09:05.475Z,18.00
2018-07-07T05:14:01.593Z,18.20
2018-07-07T05:16:29.715Z,18.30
2018-07-07T05:18:57.852Z,18.40
2018-07-07T05:21:25.970Z,18.50
2018-07-07T05:23:54.088Z,18.50
2018-07-07T05:26:22.239Z,18.60
2018-07-07T05:28:50.363Z,18.70
2018-07-07T05:31:18.497Z,18.80
2018-07-07T05:33:46.666Z,18.90
2018-07-07T05:36:14.796Z,19.00
2018-07-07T05:38:42.926Z,19.10
2018-07-07T05:41:11.095Z,19.10
2018-07-07T05:43:39.256Z,19.20
2018-07-07T05:46:07.412Z,19.20
2018-07-07T05:48:35.529Z,19.30
2018-07-07T05:51:03.800Z,19.30
2018-07-07T05:53:31.918Z,19.30
2018-07-07T05:56:00.049Z,19.40
2018-07-07T05:58:28.175Z,19.40
2018-07-07T06:00:56.314Z,19.50
2018-07-07T06:05:52.396Z,19.40
2018-07-07T06:08:20.534Z,19.40
2018-07-07T06:10:48.684Z,19.50
2018-07-07T06:13:16.818Z,19.50
2018-07-07T06:15:44.963Z,19.60
2018-07-07T06:18:13.100Z,19.80
2018-07-07T06:20:41.250Z,19.80
2018-07-07T06:23:09.378Z,19.90
2018-07-07T06:25:37.593Z,19.90
2018-07-07T06:28:05.718Z,19.90
2018-07-07T06:30:33.835Z,20.00
2018-07-07T06:33:01.979Z,20.10
2018-07-07T06:35:30.091Z,20.30
2018-07-07T06:37:58.227Z,20.30
2018-07-07T06:40:26.354Z,20.50
2018-07-07T06:42:54.484Z,20.60
2018-07-07T06:45:22.610Z,20.70
2018-07-07T06:47:50.744Z,20.80
2018-07-07T06:50:18.859Z,20.80
2018-07-07T06:55:14.878Z,20.80
2018-07-07T06:57:43.017Z,20.80
2018-07-07T07:00:11.138Z,20.90
2018-07-07T07:07:35.151Z,21.40
2018-07-07T07:12:31.202Z,21.60
2018-07-07T07:14:59.337Z,21.70
2018-07-07T07:17:27.461Z,21.70
2018-07-07T07:19:55.691Z,21.50
2018-07-07T07:22:23.834Z,21.50
2018-07-07T07:24:51.954Z,21.60
2018-07-07T07:29:48.035Z,21.80
2018-07-07T07:32:16.170Z,21.90
2018-07-07T07:34:44.290Z,21.90
2018-07-07T07:37:12.429Z,21.80
2018-07-07T07:39:40.564Z,21.90
2018-07-07T07:42:08.691Z,21.80
2018-07-07T07:44:36.809Z,21.80
2018-07-07T07:47:04.938Z,21.90
2018-07-07T07:49:33.059Z,21.90
2018-07-07T07:52:01.206Z,22.00
2018-07-07T07:54:29.331Z,22.20
2018-07-07T07:56:57.466Z,22.30
2018-07-07T07:59:25.595Z,22.40
2018-07-07T08:01:53.714Z,22.60
2018-07-07T08:04:21.835Z,22.60
2018-07-07T08:06:49.962Z,22.60
2018-07-07T08:09:18.108Z,22.70
2018-07-07T08:11:46.264Z,22.80
2018-07-07T08:14:14.425Z,22.90
2018-07-07T08:16:42.552Z,23.00
2018-07-07T08:19:10.662Z,23.00
2018-07-07T08:21:38.795Z,23.10
2018-07-07T08:24:06.953Z,23.20
2018-07-07T08:26:35.055Z,23.40
2018-07-07T08:29:03.190Z,23.40
2018-07-07T08:31:31.298Z,23.40
2018-07-07T08:33:59.430Z,23.50
2018-07-07T08:36:27.597Z,23.50
2018-07-07T08:38:55.685Z,23.50
2018-07-07T08:41:23.802Z,23.60
2018-07-07T08:46:19.961Z,23.90
2018-07-07T08:51:16.111Z,24.10
2018-07-07T08:53:44.318Z,24.20
2018-07-07T08:56:12.531Z,24.20
2018-07-07T08:58:40.671Z,24.30
2018-07-07T09:01:08.837Z,24.40
2018-07-07T09:03:36.945Z,24.40
2018-07-07T09:06:05.378Z,24.30
2018-07-07T09:08:33.497Z,24.30
2018-07-07T09:11:01.633Z,24.40
2018-07-07T09:13:29.751Z,24.50
2018-07-07T09:18:25.772Z,24.60
2018-07-07T09:20:53.957Z,24.70
2018-07-07T09:23:22.079Z,24.70
2018-07-07T09:25:50.209Z,24.80
2018-07-07T09:30:46.349Z,24.90
2018-07-07T09:33:14.458Z,25.00
2018-07-07T09:35:42.812Z,25.10
2018-07-07T09:40:38.835Z,25.10
2018-07-07T09:43:06.966Z,25.20
2018-07-07T09:45:35.082Z,25.20
2018-07-07T09:52:59.357Z,25.40
2018-07-07T09:55:27.485Z,25.50
2018-07-07T10:00:29.006Z,25.50
2018-07-07T10:02:57.148Z,25.50
2018-07-07T10:05:25.273Z,25.60
2018-07-07T10:07:53.447Z,25.60
2018-07-07T10:10:21.553Z,25.50
2018-07-07T10:12:49.723Z,25.70
2018-07-07T10:15:17.860Z,25.80
2018-07-07T10:17:45.985Z,25.90
2018-07-07T10:20:14.187Z,25.80
2018-07-07T10:22:42.490Z,25.70
2018-07-07T10:25:10.861Z,25.60
2018-07-07T10:27:38.982Z,25.70
2018-07-07T10:30:07.423Z,25.80
2018-07-07T10:32:35.574Z,26.00
2018-07-07T10:35:03.716Z,26.10
2018-07-07T10:37:31.845Z,26.30
2018-07-07T10:40:00.128Z,26.40
2018-07-07T10:42:28.255Z,26.40
2018-07-07T10:44:56.384Z,26.30
2018-07-07T10:49:52.501Z,26.60
2018-07-07T10:52:20.622Z,26.80
2018-07-07T10:54:48.751Z,26.90
2018-07-07T10:57:16.867Z,26.70
2018-07-07T10:59:45.001Z,26.50
2018-07-07T11:02:13.131Z,26.50
2018-07-07T11:04:41.259Z,26.70
2018-07-07T11:09:37.259Z,27.10
2018-07-07T11:12:05.453Z,27.20
2018-07-07T11:14:33.498Z,27.10
2018-07-07T11:17:01.625Z,27.10
2018-07-07T11:21:57.661Z,27.50
2018-07-07T11:24:25.792Z,27.70
2018-07-07T11:26:53.947Z,27.70
2018-07-07T11:29:22.108Z,27.70
2018-07-07T11:31:50.228Z,27.80
2018-07-07T11:34:18.369Z,28.10
2018-07-07T11:36:46.766Z,28.30
2018-07-07T11:39:14.726Z,28.40
2018-07-07T11:41:42.858Z,28.50
2018-07-07T11:44:10.998Z,28.50
2018-07-07T11:46:39.157Z,28.60
2018-07-07T11:49:07.291Z,28.60
2018-07-07T11:51:35.423Z,28.70
2018-07-07T11:56:31.428Z,28.60
2018-07-07T11:58:59.560Z,28.40
2018-07-07T12:01:27.666Z,28.30
2018-07-07T12:03:55.810Z,28.40
2018-07-07T12:06:23.936Z,28.30
2018-07-07T12:08:52.066Z,28.40
2018-07-07T12:11:20.230Z,28.60
2018-07-07T12:13:48.334Z,28.80
2018-07-07T12:16:16.465Z,29.10
2018-07-07T12:18:44.605Z,29.00
2018-07-07T12:21:12.752Z,28.90
2018-07-07T12:23:40.898Z,29.10
2018-07-07T12:26:09.060Z,29.20
2018-07-07T12:28:37.186Z,29.30
2018-07-07T12:31:05.324Z,29.50
2018-07-07T12:33:33.433Z,29.70
2018-07-07T12:36:01.559Z,29.50
2018-07-07T12:38:29.690Z,29.30
2018-07-07T12:40:57.807Z,29.40
2018-07-07T12:43:25.926Z,29.50
2018-07-07T12:45:54.104Z,29.60
2018-07-07T12:48:22.249Z,29.50
2018-07-07T12:50:50.396Z,29.50
2018-07-07T12:53:18.578Z,29.40
2018-07-07T12:55:46.673Z,29.40
2018-07-07T12:58:14.803Z,29.60
2018-07-07T13:00:42.938Z,29.80
2018-07-07T13:03:11.072Z,29.80
2018-07-07T13:05:39.216Z,29.70
2018-07-07T13:08:07.353Z,30.10
2018-07-07T13:10:35.505Z,30.30
2018-07-07T13:13:03.617Z,30.40
2018-07-07T13:15:31.754Z,30.80
2018-07-07T13:17:59.891Z,31.40
2018-07-07T13:20:28.024Z,31.40
2018-07-07T13:25:24.359Z,32.10
2018-07-07T13:27:52.518Z,32.00
2018-07-07T13:30:20.704Z,31.70
2018-07-07T13:32:48.834Z,31.90
2018-07-07T13:35:17.130Z,32.30
2018-07-07T13:37:45.248Z,32.80
2018-07-07T13:40:13.379Z,32.70
2018-07-07T13:42:41.549Z,33.00
2018-07-07T13:45:09.685Z,33.10
2018-07-07T13:47:37.808Z,33.10
2018-07-07T13:50:05.954Z,33.10
2018-07-07T13:52:34.132Z,32.90
2018-07-07T13:55:02.246Z,33.40
2018-07-07T13:57:30.364Z,33.90
2018-07-07T13:59:58.499Z,33.10
2018-07-07T14:02:26.782Z,32.60
2018-07-07T14:04:54.881Z,32.10
2018-07-07T14:07:23.020Z,32.60
2018-07-07T14:09:51.153Z,33.40
2018-07-07T14:12:19.310Z,33.40
2018-07-07T14:14:47.444Z,33.30
2018-07-07T14:17:15.605Z,33.50
2018-07-07T14:19:43.702Z,33.80
2018-07-07T14:22:11.850Z,34.60
2018-07-07T14:24:46.658Z,34.80
2018-07-07T14:29:42.720Z,35.20
2018-07-07T14:32:10.844Z,35.50
2018-07-07T14:34:38.955Z,34.80
2018-07-07T14:37:07.097Z,34.30
2018-07-07T14:39:42.726Z,34.50
2018-07-07T14:42:29.826Z,34.80
2018-07-07T14:44:57.946Z,34.60
2018-07-07T14:47:26.073Z,34.60
2018-07-07T14:49:54.268Z,34.40
2018-07-07T14:52:22.438Z,34.80
2018-07-07T14:54:50.558Z,34.80
2018-07-07T14:59:46.579Z,34.60
2018-07-07T15:04:42.650Z,35.00
2018-07-07T15:07:10.868Z,34.90
2018-07-07T15:09:39.012Z,35.00
2018-07-07T15:12:07.252Z,35.00
2018-07-07T15:14:35.371Z,33.50
2018-07-07T15:17:04.452Z,31.40
2018-07-07T15:19:33.281Z,30.00
2018-07-07T15:22:02.298Z,29.30
2018-07-07T15:24:31.256Z,28.80
2018-07-07T15:27:00.212Z,28.80
2018-07-07T15:29:29.100Z,28.60
2018-07-07T15:31:58.048Z,28.30
2018-07-07T15:34:26.880Z,28.20
2018-07-07T15:36:55.655Z,28.10
2018-07-07T15:39:24.348Z,28.10
2018-07-07T15:41:52.519Z,28.00
2018-07-07T15:44:21.458Z,27.90
2018-07-07T15:46:50.400Z,27.90
2018-07-07T15:49:18.582Z,28.00
2018-07-07T15:51:47.107Z,27.90
2018-07-07T15:54:15.227Z,27.70
2018-07-07T15:56:43.357Z,27.70
2018-07-07T15:59:11.466Z,27.70
2018-07-07T16:01:39.595Z,27.70
2018-07-07T16:04:07.703Z,27.90
2018-07-07T16:06:35.905Z,27.70
2018-07-07T16:09:05.998Z,27.70
2018-07-07T16:11:34.235Z,27.70
2018-07-07T16:14:02.346Z,27.70
2018-07-07T16:16:30.483Z,27.70
2018-07-07T16:18:58.585Z,27.70
2018-07-07T16:21:26.722Z,27.70
2018-07-07T16:23:54.853Z,27.70
2018-07-07T16:26:22.974Z,27.50
2018-07-07T16:31:18.997Z,27.80
2018-07-07T16:33:47.144Z,27.50
2018-07-07T16:36:15.308Z,27.20
2018-07-07T16:38:43.429Z,27.20
2018-07-07T16:43:40.030Z,27.20
2018-07-07T16:46:08.172Z,27.30
2018-07-07T16:48:36.302Z,27.40
2018-07-07T16:51:04.442Z,27.30
2018-07-07T16:53:32.861Z,27.10
2018-07-07T16:56:00.983Z,27.20
2018-07-07T16:58:29.423Z,27.30
2018-07-07T17:03:25.826Z,27.40
2018-07-07T17:05:53.965Z,27.50
2018-07-07T17:08:22.083Z,27.20
2018-07-07T17:10:50.209Z,27.10
2018-07-07T17:13:18.365Z,27.10
2018-07-07T17:23:11.093Z,26.70
2018-07-07T17:25:39.210Z,26.70
2018-07-07T17:28:07.350Z,26.70
2018-07-07T17:30:35.463Z,26.60
2018-07-07T17:35:31.993Z,26.80
2018-07-07T17:38:00.165Z,26.80
2018-07-07T17:40:28.404Z,26.70
2018-07-07T17:42:56.551Z,26.60
2018-07-07T17:45:24.658Z,26.60
2018-07-07T17:47:52.806Z,26.50
2018-07-07T17:50:20.930Z,26.30
2018-07-07T17:52:49.088Z,26.20
2018-07-07T17:55:17.203Z,26.10
2018-07-07T18:00:13.286Z,25.90
2018-07-07T18:02:41.467Z,26.00
2018-07-07T18:05:09.570Z,26.00
2018-07-07T18:07:37.703Z,25.90
2018-07-07T18:10:05.927Z,25.80
2018-07-07T18:17:30.076Z,25.80
2018-07-07T18:19:58.488Z,25.80
2018-07-07T18:22:26.603Z,25.80
2018-07-07T18:24:54.747Z,25.80
2018-07-07T18:27:22.912Z,25.90
2018-07-07T18:29:51.046Z,25.90
2018-07-07T18:32:19.187Z,25.90
2018-07-07T18:37:15.203Z,25.70
2018-07-07T18:39:43.314Z,25.70
2018-07-07T18:42:11.436Z,25.60
2018-07-07T18:44:39.551Z,25.50
2018-07-07T18:47:07.767Z,25.40
2018-07-07T18:49:35.916Z,25.40
2018-07-07T18:52:04.018Z,25.30
2018-07-07T18:54:32.160Z,25.30
2018-07-07T18:57:00.282Z,25.10
2018-07-07T19:01:56.365Z,25.10
2018-07-07T19:06:52.536Z,25.10
2018-07-07T19:09:20.685Z,25.00
2018-07-07T19:11:48.886Z,25.00
2018-07-07T19:14:17.184Z,24.90
2018-07-07T19:16:45.311Z,24.80
2018-07-07T19:19:13.499Z,24.80
2018-07-07T19:21:47.030Z,24.70
2018-07-07T19:26:51.869Z,24.60
2018-07-07T19:31:54.478Z,24.40
2018-07-07T19:34:27.947Z,24.30
2018-07-07T19:37:01.579Z,24.30
2018-07-07T19:39:29.726Z,24.20
2018-07-07T19:41:58.304Z,24.20
2018-07-07T19:44:26.431Z,24.10
2018-07-07T19:46:54.649Z,24.10
2018-07-07T19:49:22.793Z,24.00
2018-07-07T19:51:50.935Z,24.00
2018-07-07T19:54:19.044Z,23.90
2018-07-07T19:56:47.155Z,23.80
2018-07-07T20:04:11.136Z,23.70
2018-07-07T20:06:39.258Z,23.60
2018-07-07T20:09:07.753Z,23.60
2018-07-07T20:11:35.883Z,23.50
2018-07-07T20:16:43.335Z,23.40
2018-07-07T20:19:19.744Z,23.40
2018-07-07T20:22:03.531Z,23.30
2018-07-07T20:29:35.402Z,23.10
2018-07-07T20:32:03.732Z,23.10
2018-07-07T20:34:32.125Z,23.00
2018-07-07T20:37:00.356Z,22.90
2018-07-07T20:39:28.467Z,22.90
2018-07-07T20:41:56.693Z,22.80
2018-07-07T20:44:24.841Z,22.80
2018-07-07T20:49:20.911Z,22.70
2018-07-07T20:51:49.645Z,22.60
2018-07-07T20:54:17.793Z,22.60
2018-07-07T20:56:45.931Z,22.50
2018-07-07T20:59:14.161Z,22.50
2018-07-07T21:01:42.326Z,22.40
2018-07-07T21:04:10.403Z,22.30
2018-07-07T21:06:38.567Z,22.20
2018-07-07T21:09:07.093Z,22.20
2018-07-07T21:11:35.524Z,22.10
2018-07-07T21:14:03.759Z,22.10
2018-07-07T21:16:31.883Z,22.00
2018-07-07T21:19:00.191Z,22.00
2018-07-07T21:21:28.470Z,22.00
2018-07-07T21:23:56.603Z,21.90
2018-07-07T21:26:24.760Z,21.90
2018-07-07T21:28:53.199Z,21.80
2018-07-07T21:31:21.349Z,21.70
2018-07-07T21:36:17.454Z,21.60
2018-07-07T21:38:45.569Z,21.50
2018-07-07T21:43:41.615Z,21.40
2018-07-07T21:46:09.767Z,21.30
2018-07-07T21:53:33.840Z,21.10
2018-07-07T21:58:30.408Z,21.10
2018-07-07T22:01:14.164Z,21.00
2018-07-07T22:03:47.624Z,21.00
2018-07-07T22:06:21.298Z,21.00
2018-07-07T22:08:49.534Z,20.90
2018-07-07T22:11:17.864Z,20.90
2018-07-07T22:13:45.970Z,20.90
2018-07-07T22:16:14.129Z,20.80
2018-07-07T22:18:42.260Z,20.80
2018-07-07T22:21:21.844Z,20.70
2018-07-07T22:23:49.977Z,20.70
2018-07-07T22:26:18.120Z,20.70
2018-07-07T22:31:14.158Z,20.70
2018-07-07T22:33:42.258Z,20.60
2018-07-07T22:36:15.970Z,20.60
2018-07-07T22:38:49.671Z,20.60
2018-07-07T22:41:17.816Z,20.50
2018-07-07T22:46:13.846Z,20.40
2018-07-07T22:48:41.984Z,20.40
2018-07-07T22:51:10.243Z,20.40
2018-07-07T22:53:38.354Z,20.40
2018-07-07T22:56:06.507Z,20.30
2018-07-07T22:58:34.642Z,20.30
2018-07-07T23:01:02.770Z,20.20
2018-07-07T23:03:30.881Z,20.20
2018-07-07T23:05:59.022Z,20.10
2018-07-07T23:08:27.142Z,20.10
2018-07-07T23:10:55.274Z,20.10
2018-07-07T23:13:23.437Z,20.00
2018-07-07T23:15:51.568Z,20.00
2018-07-07T23:18:19.681Z,20.00
2018-07-07T23:20:47.807Z,19.90
2018-07-07T23:23:15.944Z,19.80
2018-07-07T23:28:12.032Z,19.70
2018-07-07T23:30:40.183Z,19.70
2018-07-07T23:33:08.325Z,19.60
2018-07-07T23:38:04.409Z,19.50
2018-07-07T23:40:32.535Z,19.50
2018-07-07T23:43:00.658Z,19.40
2018-07-07T23:45:28.864Z,19.40
2018-07-07T23:47:57.009Z,19.40
2018-07-07T23:50:25.139Z,19.30
2018-07-07T23:55:21.166Z,19.30
2018-07-07T23:57:49.299Z,19.20
